Leech Lake, Minnesota
Current Conditions -  °F | °C
As of 2:55 PM on Thursday 20 Nov 2014 (Local Time) from KY49 Reporting Station
Clear Clear  
Wind Chill:   Ceiling: Unl
Heat Index: 12°   Visibility: 10mi
Dew Point: -2°   Wind: 8mph
Humidity: 53%   Direction: 280°W
Pressure: 30.08"   Gusts: NA
Location:  47.0507°N, 94.6083°W
Report Text: KY49 202055Z AUTO 28007KT 10SM CLR M11/M19 A3008 RMK AO2 T11111190
Loading
Personal Weather Stations






























Interactive Weather Map New forecast layout! Learn more

10-Day Weather Forecast

Advertisements
Track Severe Weather on mobile